sensor_id;sensor_type;location;lat;lon;timestamp;temperature;humidity
60701;DHT22;46541;49.894;10.886;2023-05-19T00:00:28;12.80;83.60
60701;DHT22;46541;49.894;10.886;2023-05-19T00:02:56;12.90;83.60
60701;DHT22;46541;49.894;10.886;2023-05-19T00:05:23;12.90;83.40
60701;DHT22;46541;49.894;10.886;2023-05-19T00:07:51;12.90;83.60
60701;DHT22;46541;49.894;10.886;2023-05-19T00:10:19;12.90;83.80
60701;DHT22;46541;49.894;10.886;2023-05-19T00:12:46;12.80;83.60
60701;DHT22;46541;49.894;10.886;2023-05-19T00:15:14;12.90;83.50
60701;DHT22;46541;49.894;10.886;2023-05-19T00:17:41;12.90;83.70
60701;DHT22;46541;49.894;10.886;2023-05-19T00:20:08;12.90;83.30
60701;DHT22;46541;49.894;10.886;2023-05-19T00:22:35;12.90;83.80
60701;DHT22;46541;49.894;10.886;2023-05-19T00:25:02;12.80;84.20
60701;DHT22;46541;49.894;10.886;2023-05-19T00:27:29;12.90;86.80
60701;DHT22;46541;49.894;10.886;2023-05-19T00:29:56;12.80;87.60
60701;DHT22;46541;49.894;10.886;2023-05-19T00:32:23;12.80;87.90
60701;DHT22;46541;49.894;10.886;2023-05-19T00:34:49;12.80;89.50
60701;DHT22;46541;49.894;10.886;2023-05-19T00:37:16;12.70;89.30
60701;DHT22;46541;49.894;10.886;2023-05-19T00:39:43;12.60;90.10
60701;DHT22;46541;49.894;10.886;2023-05-19T00:42:10;12.60;90.30
60701;DHT22;46541;49.894;10.886;2023-05-19T00:44:40;12.60;90.50
60701;DHT22;46541;49.894;10.886;2023-05-19T00:47:07;12.60;90.70
60701;DHT22;46541;49.894;10.886;2023-05-19T00:49:34;12.50;90.80
60701;DHT22;46541;49.894;10.886;2023-05-19T00:52:01;12.50;91.00
60701;DHT22;46541;49.894;10.886;2023-05-19T00:54:28;12.40;91.10
60701;DHT22;46541;49.894;10.886;2023-05-19T00:56:55;12.40;91.10
60701;DHT22;46541;49.894;10.886;2023-05-19T00:59:23;12.40;91.40
60701;DHT22;46541;49.894;10.886;2023-05-19T01:01:50;12.30;91.80
60701;DHT22;46541;49.894;10.886;2023-05-19T01:04:18;12.30;92.10
60701;DHT22;46541;49.894;10.886;2023-05-19T01:06:46;12.20;92.30
60701;DHT22;46541;49.894;10.886;2023-05-19T01:09:14;12.20;92.60
60701;DHT22;46541;49.894;10.886;2023-05-19T01:11:41;12.20;92.80
60701;DHT22;46541;49.894;10.886;2023-05-19T01:14:08;12.20;92.90
60701;DHT22;46541;49.894;10.886;2023-05-19T01:17:06;12.20;92.90
60701;DHT22;46541;49.894;10.886;2023-05-19T01:19:57;12.10;93.30
60701;DHT22;46541;49.894;10.886;2023-05-19T01:28:52;12.10;93.60
60701;DHT22;46541;49.894;10.886;2023-05-19T01:31:21;12.10;93.80
60701;DHT22;46541;49.894;10.886;2023-05-19T01:33:51;12.10;93.90
60701;DHT22;46541;49.894;10.886;2023-05-19T01:36:21;12.10;94.10
60701;DHT22;46541;49.894;10.886;2023-05-19T01:38:53;12.10;94.40
60701;DHT22;46541;49.894;10.886;2023-05-19T01:41:21;12.10;94.50
60701;DHT22;46541;49.894;10.886;2023-05-19T01:43:48;12.10;94.60
60701;DHT22;46541;49.894;10.886;2023-05-19T01:46:16;12.10;94.80
60701;DHT22;46541;49.894;10.886;2023-05-19T01:48:44;12.10;94.90
60701;DHT22;46541;49.894;10.886;2023-05-19T01:51:12;12.00;95.20
60701;DHT22;46541;49.894;10.886;2023-05-19T01:53:38;12.10;95.20
60701;DHT22;46541;49.894;10.886;2023-05-19T01:56:06;12.10;95.10
60701;DHT22;46541;49.894;10.886;2023-05-19T01:58:43;12.00;95.10
60701;DHT22;46541;49.894;10.886;2023-05-19T02:01:33;12.00;95.50
60701;DHT22;46541;49.894;10.886;2023-05-19T02:09:33;12.00;96.00
60701;DHT22;46541;49.894;10.886;2023-05-19T02:14:42;11.90;96.20
60701;DHT22;46541;49.894;10.886;2023-05-19T02:17:13;11.90;96.50
60701;DHT22;46541;49.894;10.886;2023-05-19T02:19:42;11.90;96.60
60701;DHT22;46541;49.894;10.886;2023-05-19T02:22:09;11.90;96.90
60701;DHT22;46541;49.894;10.886;2023-05-19T02:24:35;11.90;96.80
60701;DHT22;46541;49.894;10.886;2023-05-19T02:27:03;11.80;97.00
60701;DHT22;46541;49.894;10.886;2023-05-19T02:29:30;11.80;97.20
60701;DHT22;46541;49.894;10.886;2023-05-19T02:31:57;11.80;97.30
60701;DHT22;46541;49.894;10.886;2023-05-19T02:34:24;11.80;97.60
60701;DHT22;46541;49.894;10.886;2023-05-19T02:36:51;11.80;97.60
60701;DHT22;46541;49.894;10.886;2023-05-19T02:39:18;11.80;97.90
60701;DHT22;46541;49.894;10.886;2023-05-19T02:41:44;11.80;97.80
60701;DHT22;46541;49.894;10.886;2023-05-19T02:44:11;11.80;97.80
60701;DHT22;46541;49.894;10.886;2023-05-19T02:46:38;11.90;98.00
60701;DHT22;46541;49.894;10.886;2023-05-19T02:49:05;11.80;98.10
60701;DHT22;46541;49.894;10.886;2023-05-19T02:51:32;11.80;98.40
60701;DHT22;46541;49.894;10.886;2023-05-19T02:53:59;11.70;98.60
60701;DHT22;46541;49.894;10.886;2023-05-19T02:56:26;11.70;98.90
60701;DHT22;46541;49.894;10.886;2023-05-19T02:58:53;11.70;99.10
60701;DHT22;46541;49.894;10.886;2023-05-19T03:01:20;11.70;99.40
60701;DHT22;46541;49.894;10.886;2023-05-19T03:03:48;11.70;99.00
60701;DHT22;46541;49.894;10.886;2023-05-19T03:06:15;11.70;99.20
60701;DHT22;46541;49.894;10.886;2023-05-19T03:08:43;11.70;99.30
60701;DHT22;46541;49.894;10.886;2023-05-19T03:11:10;11.70;99.30
60701;DHT22;46541;49.894;10.886;2023-05-19T03:13:37;11.60;99.20
60701;DHT22;46541;49.894;10.886;2023-05-19T03:16:04;11.60;99.40
60701;DHT22;46541;49.894;10.886;2023-05-19T03:18:33;11.60;99.80
60701;DHT22;46541;49.894;10.886;2023-05-19T03:21:00;11.60;99.80
60701;DHT22;46541;49.894;10.886;2023-05-19T03:23:27;11.60;99.90
60701;DHT22;46541;49.894;10.886;2023-05-19T03:25:53;11.60;99.90
60701;DHT22;46541;49.894;10.886;2023-05-19T03:28:21;11.60;99.90
60701;DHT22;46541;49.894;10.886;2023-05-19T03:30:49;11.60;99.90
60701;DHT22;46541;49.894;10.886;2023-05-19T03:33:16;11.60;99.90
60701;DHT22;46541;49.894;10.886;2023-05-19T03:35:43;11.60;99.90
60701;DHT22;46541;49.894;10.886;2023-05-19T03:38:10;11.60;99.90
60701;DHT22;46541;49.894;10.886;2023-05-19T03:40:36;11.60;99.90
60701;DHT22;46541;49.894;10.886;2023-05-19T03:43:03;11.60;99.90
60701;DHT22;46541;49.894;10.886;2023-05-19T03:45:30;11.50;99.90
60701;DHT22;46541;49.894;10.886;2023-05-19T03:47:57;11.60;99.90
60701;DHT22;46541;49.894;10.886;2023-05-19T03:50:23;11.60;99.90
60701;DHT22;46541;49.894;10.886;2023-05-19T03:52:50;11.70;99.90
60701;DHT22;46541;49.894;10.886;2023-05-19T03:55:17;11.70;99.90
60701;DHT22;46541;49.894;10.886;2023-05-19T03:57:45;11.70;99.90
60701;DHT22;46541;49.894;10.886;2023-05-19T04:00:13;11.70;99.90
60701;DHT22;46541;49.894;10.886;2023-05-19T04:02:39;11.70;99.90
60701;DHT22;46541;49.894;10.886;2023-05-19T04:05:07;11.70;99.90
60701;DHT22;46541;49.894;10.886;2023-05-19T04:07:34;11.80;99.90
60701;DHT22;46541;49.894;10.886;2023-05-19T04:10:03;11.80;99.90
60701;DHT22;46541;49.894;10.886;2023-05-19T04:12:30;11.80;99.90
60701;DHT22;46541;49.894;10.886;2023-05-19T04:14:58;11.80;99.90
60701;DHT22;46541;49.894;10.886;2023-05-19T04:17:26;11.90;99.90
60701;DHT22;46541;49.894;10.886;2023-05-19T04:19:53;12.00;99.90
60701;DHT22;46541;49.894;10.886;2023-05-19T04:22:20;12.00;99.90
60701;DHT22;46541;49.894;10.886;2023-05-19T04:24:47;12.10;99.90
60701;DHT22;46541;49.894;10.886;2023-05-19T04:27:14;12.10;99.90
60701;DHT22;46541;49.894;10.886;2023-05-19T04:29:41;12.10;99.90
60701;DHT22;46541;49.894;10.886;2023-05-19T04:32:08;12.20;99.90
60701;DHT22;46541;49.894;10.886;2023-05-19T04:34:36;12.20;99.90
60701;DHT22;46541;49.894;10.886;2023-05-19T04:37:09;12.20;99.90
60701;DHT22;46541;49.894;10.886;2023-05-19T04:39:36;12.30;99.90
60701;DHT22;46541;49.894;10.886;2023-05-19T04:42:05;12.30;99.90
60701;DHT22;46541;49.894;10.886;2023-05-19T04:44:32;12.40;99.90
60701;DHT22;46541;49.894;10.886;2023-05-19T04:46:59;12.40;99.90
60701;DHT22;46541;49.894;10.886;2023-05-19T04:49:25;12.40;99.90
60701;DHT22;46541;49.894;10.886;2023-05-19T04:51:52;12.40;99.90
60701;DHT22;46541;49.894;10.886;2023-05-19T04:54:21;12.50;99.90
60701;DHT22;46541;49.894;10.886;2023-05-19T04:56:48;12.50;99.90
60701;DHT22;46541;49.894;10.886;2023-05-19T04:59:14;12.50;99.90
60701;DHT22;46541;49.894;10.886;2023-05-19T05:01:41;12.70;99.80
60701;DHT22;46541;49.894;10.886;2023-05-19T05:04:08;12.70;99.70
60701;DHT22;46541;49.894;10.886;2023-05-19T05:06:35;12.80;99.50
60701;DHT22;46541;49.894;10.886;2023-05-19T05:09:03;12.80;99.50
60701;DHT22;46541;49.894;10.886;2023-05-19T05:11:30;12.80;99.40
60701;DHT22;46541;49.894;10.886;2023-05-19T05:13:57;12.80;99.30
60701;DHT22;46541;49.894;10.886;2023-05-19T05:16:25;12.80;99.20
60701;DHT22;46541;49.894;10.886;2023-05-19T05:18:52;12.90;99.30
60701;DHT22;46541;49.894;10.886;2023-05-19T05:21:19;12.90;99.20
60701;DHT22;46541;49.894;10.886;2023-05-19T05:23:46;13.00;99.10
60701;DHT22;46541;49.894;10.886;2023-05-19T05:26:17;13.00;99.20
60701;DHT22;46541;49.894;10.886;2023-05-19T05:28:48;13.10;99.00
60701;DHT22;46541;49.894;10.886;2023-05-19T05:31:15;13.20;99.00
60701;DHT22;46541;49.894;10.886;2023-05-19T05:33:42;13.20;99.00
60701;DHT22;46541;49.894;10.886;2023-05-19T05:36:09;13.30;98.70
60701;DHT22;46541;49.894;10.886;2023-05-19T05:38:36;13.40;98.70
60701;DHT22;46541;49.894;10.886;2023-05-19T05:41:03;13.40;98.80
60701;DHT22;46541;49.894;10.886;2023-05-19T05:43:29;13.40;98.50
60701;DHT22;46541;49.894;10.886;2023-05-19T05:45:56;13.40;98.50
60701;DHT22;46541;49.894;10.886;2023-05-19T05:48:23;13.50;98.50
60701;DHT22;46541;49.894;10.886;2023-05-19T05:50:51;13.50;98.40
60701;DHT22;46541;49.894;10.886;2023-05-19T05:53:19;13.50;98.20
60701;DHT22;46541;49.894;10.886;2023-05-19T05:55:46;13.60;98.40
60701;DHT22;46541;49.894;10.886;2023-05-19T05:58:13;13.60;98.30
60701;DHT22;46541;49.894;10.886;2023-05-19T06:00:41;13.60;98.10
60701;DHT22;46541;49.894;10.886;2023-05-19T06:03:14;13.70;98.30
60701;DHT22;46541;49.894;10.886;2023-05-19T06:05:42;13.70;98.20
60701;DHT22;46541;49.894;10.886;2023-05-19T06:08:09;13.80;98.30
60701;DHT22;46541;49.894;10.886;2023-05-19T06:10:35;13.90;97.90
60701;DHT22;46541;49.894;10.886;2023-05-19T06:13:04;14.00;97.80
60701;DHT22;46541;49.894;10.886;2023-05-19T06:15:31;14.00;97.80
60701;DHT22;46541;49.894;10.886;2023-05-19T06:17:58;14.00;97.80
60701;DHT22;46541;49.894;10.886;2023-05-19T06:20:25;14.20;97.60
60701;DHT22;46541;49.894;10.886;2023-05-19T06:22:52;14.30;97.60
60701;DHT22;46541;49.894;10.886;2023-05-19T06:25:18;14.40;97.20
60701;DHT22;46541;49.894;10.886;2023-05-19T06:27:46;14.40;97.10
60701;DHT22;46541;49.894;10.886;2023-05-19T06:30:13;14.60;96.80
60701;DHT22;46541;49.894;10.886;2023-05-19T06:32:40;14.60;96.70
60701;DHT22;46541;49.894;10.886;2023-05-19T06:35:07;14.70;96.70
60701;DHT22;46541;49.894;10.886;2023-05-19T06:37:33;14.80;96.50
60701;DHT22;46541;49.894;10.886;2023-05-19T06:40:00;14.80;96.30
60701;DHT22;46541;49.894;10.886;2023-05-19T06:42:27;14.90;96.10
60701;DHT22;46541;49.894;10.886;2023-05-19T06:44:54;14.90;95.90
60701;DHT22;46541;49.894;10.886;2023-05-19T06:47:21;15.00;95.80
60701;DHT22;46541;49.894;10.886;2023-05-19T06:49:48;15.00;95.50
60701;DHT22;46541;49.894;10.886;2023-05-19T06:52:17;15.10;95.80
60701;DHT22;46541;49.894;10.886;2023-05-19T06:54:43;15.10;95.80
60701;DHT22;46541;49.894;10.886;2023-05-19T06:57:10;15.10;95.70
60701;DHT22;46541;49.894;10.886;2023-05-19T06:59:37;15.10;95.70
60701;DHT22;46541;49.894;10.886;2023-05-19T07:02:06;15.10;95.40
60701;DHT22;46541;49.894;10.886;2023-05-19T07:04:33;15.20;94.70
60701;DHT22;46541;49.894;10.886;2023-05-19T07:07:00;15.00;93.70
60701;DHT22;46541;49.894;10.886;2023-05-19T07:09:27;15.00;93.20
60701;DHT22;46541;49.894;10.886;2023-05-19T07:11:54;15.00;93.50
60701;DHT22;46541;49.894;10.886;2023-05-19T07:14:22;14.90;93.30
60701;DHT22;46541;49.894;10.886;2023-05-19T07:16:49;15.00;93.00
60701;DHT22;46541;49.894;10.886;2023-05-19T07:19:15;15.00;93.10
60701;DHT22;46541;49.894;10.886;2023-05-19T07:21:45;15.10;92.90
60701;DHT22;46541;49.894;10.886;2023-05-19T07:24:12;15.20;92.60
60701;DHT22;46541;49.894;10.886;2023-05-19T07:26:39;15.20;92.30
60701;DHT22;46541;49.894;10.886;2023-05-19T07:29:07;15.30;92.10
60701;DHT22;46541;49.894;10.886;2023-05-19T07:31:33;15.30;92.20
60701;DHT22;46541;49.894;10.886;2023-05-19T07:34:01;15.30;91.90
60701;DHT22;46541;49.894;10.886;2023-05-19T07:36:28;15.40;91.70
60701;DHT22;46541;49.894;10.886;2023-05-19T07:38:55;15.70;91.40
60701;DHT22;46541;49.894;10.886;2023-05-19T07:41:22;15.80;91.20
60701;DHT22;46541;49.894;10.886;2023-05-19T07:43:48;16.00;91.00
60701;DHT22;46541;49.894;10.886;2023-05-19T07:46:15;16.00;91.00
60701;DHT22;46541;49.894;10.886;2023-05-19T07:48:42;15.90;90.60
60701;DHT22;46541;49.894;10.886;2023-05-19T07:51:10;16.00;90.70
60701;DHT22;46541;49.894;10.886;2023-05-19T07:53:37;16.10;90.50
60701;DHT22;46541;49.894;10.886;2023-05-19T07:56:04;16.20;90.30
60701;DHT22;46541;49.894;10.886;2023-05-19T07:58:31;16.40;90.20
60701;DHT22;46541;49.894;10.886;2023-05-19T08:00:58;16.70;89.90
60701;DHT22;46541;49.894;10.886;2023-05-19T08:03:25;16.90;89.30
60701;DHT22;46541;49.894;10.886;2023-05-19T08:05:52;17.10;88.40
60701;DHT22;46541;49.894;10.886;2023-05-19T08:08:19;17.40;88.50
60701;DHT22;46541;49.894;10.886;2023-05-19T08:10:47;17.60;87.30
60701;DHT22;46541;49.894;10.886;2023-05-19T08:13:14;17.70;85.70
60701;DHT22;46541;49.894;10.886;2023-05-19T08:15:40;17.60;85.80
60701;DHT22;46541;49.894;10.886;2023-05-19T08:18:08;17.50;86.00
60701;DHT22;46541;49.894;10.886;2023-05-19T08:20:36;17.60;86.50
60701;DHT22;46541;49.894;10.886;2023-05-19T08:23:03;17.60;84.90
60701;DHT22;46541;49.894;10.886;2023-05-19T08:25:29;17.70;85.90
60701;DHT22;46541;49.894;10.886;2023-05-19T08:27:56;17.80;84.60
60701;DHT22;46541;49.894;10.886;2023-05-19T08:30:23;17.80;84.10
60701;DHT22;46541;49.894;10.886;2023-05-19T08:32:50;17.40;84.70
60701;DHT22;46541;49.894;10.886;2023-05-19T08:35:17;17.40;85.10
60701;DHT22;46541;49.894;10.886;2023-05-19T08:37:44;17.70;84.40
60701;DHT22;46541;49.894;10.886;2023-05-19T08:40:15;18.00;84.00
60701;DHT22;46541;49.894;10.886;2023-05-19T08:42:42;18.20;83.00
60701;DHT22;46541;49.894;10.886;2023-05-19T08:45:09;18.30;83.40
60701;DHT22;46541;49.894;10.886;2023-05-19T08:47:36;18.00;82.90
60701;DHT22;46541;49.894;10.886;2023-05-19T08:50:05;17.90;83.20
60701;DHT22;46541;49.894;10.886;2023-05-19T08:52:51;17.80;82.60
60701;DHT22;46541;49.894;10.886;2023-05-19T08:55:30;17.90;83.60
60701;DHT22;46541;49.894;10.886;2023-05-19T08:58:03;17.80;81.20
60701;DHT22;46541;49.894;10.886;2023-05-19T09:00:30;17.80;81.40
60701;DHT22;46541;49.894;10.886;2023-05-19T09:02:59;18.00;80.20
60701;DHT22;46541;49.894;10.886;2023-05-19T09:05:44;17.80;80.30
60701;DHT22;46541;49.894;10.886;2023-05-19T09:08:12;17.80;80.10
60701;DHT22;46541;49.894;10.886;2023-05-19T09:10:39;17.90;80.00
60701;DHT22;46541;49.894;10.886;2023-05-19T09:13:06;18.00;79.20
60701;DHT22;46541;49.894;10.886;2023-05-19T09:15:33;18.40;77.60
60701;DHT22;46541;49.894;10.886;2023-05-19T09:18:10;18.50;77.40
60701;DHT22;46541;49.894;10.886;2023-05-19T09:20:39;18.70;77.70
60701;DHT22;46541;49.894;10.886;2023-05-19T09:23:07;18.90;76.70
60701;DHT22;46541;49.894;10.886;2023-05-19T09:26:05;19.00;76.90
60701;DHT22;46541;49.894;10.886;2023-05-19T09:28:35;19.00;76.00
60701;DHT22;46541;49.894;10.886;2023-05-19T09:31:07;19.00;76.90
60701;DHT22;46541;49.894;10.886;2023-05-19T09:33:36;18.90;76.20
60701;DHT22;46541;49.894;10.886;2023-05-19T09:36:04;18.80;76.50
60701;DHT22;46541;49.894;10.886;2023-05-19T09:38:32;18.90;76.50
60701;DHT22;46541;49.894;10.886;2023-05-19T09:40:59;18.80;76.30
60701;DHT22;46541;49.894;10.886;2023-05-19T09:43:30;18.80;76.10
60701;DHT22;46541;49.894;10.886;2023-05-19T09:46:05;19.00;75.50
60701;DHT22;46541;49.894;10.886;2023-05-19T09:48:33;19.20;75.00
60701;DHT22;46541;49.894;10.886;2023-05-19T09:51:04;19.30;74.40
60701;DHT22;46541;49.894;10.886;2023-05-19T09:53:34;19.50;74.80
60701;DHT22;46541;49.894;10.886;2023-05-19T09:56:01;19.60;74.00
60701;DHT22;46541;49.894;10.886;2023-05-19T09:58:33;19.70;73.40
60701;DHT22;46541;49.894;10.886;2023-05-19T10:01:03;19.70;72.30
60701;DHT22;46541;49.894;10.886;2023-05-19T10:03:30;19.50;72.70
60701;DHT22;46541;49.894;10.886;2023-05-19T10:06:02;19.70;72.40
60701;DHT22;46541;49.894;10.886;2023-05-19T10:08:30;19.60;71.30
60701;DHT22;46541;49.894;10.886;2023-05-19T10:10:58;19.60;70.70
60701;DHT22;46541;49.894;10.886;2023-05-19T10:13:26;19.70;70.30
60701;DHT22;46541;49.894;10.886;2023-05-19T10:15:54;19.80;70.60
60701;DHT22;46541;49.894;10.886;2023-05-19T10:18:26;19.80;69.90
60701;DHT22;46541;49.894;10.886;2023-05-19T10:20:56;20.00;69.10
60701;DHT22;46541;49.894;10.886;2023-05-19T10:23:24;20.00;68.40
60701;DHT22;46541;49.894;10.886;2023-05-19T10:25:55;20.20;67.50
60701;DHT22;46541;49.894;10.886;2023-05-19T10:28:24;20.20;67.40
60701;DHT22;46541;49.894;10.886;2023-05-19T10:30:55;20.30;66.60
60701;DHT22;46541;49.894;10.886;2023-05-19T10:36:51;20.60;66.00
60701;DHT22;46541;49.894;10.886;2023-05-19T10:39:24;20.80;64.80
60701;DHT22;46541;49.894;10.886;2023-05-19T10:42:08;20.60;62.50
60701;DHT22;46541;49.894;10.886;2023-05-19T10:45:12;20.70;63.80
60701;DHT22;46541;49.894;10.886;2023-05-19T10:47:40;20.60;62.90
60701;DHT22;46541;49.894;10.886;2023-05-19T10:50:07;21.00;62.20
60701;DHT22;46541;49.894;10.886;2023-05-19T10:52:36;21.20;61.90
60701;DHT22;46541;49.894;10.886;2023-05-19T10:55:11;21.30;63.00
60701;DHT22;46541;49.894;10.886;2023-05-19T10:57:53;21.20;63.30
60701;DHT22;46541;49.894;10.886;2023-05-19T11:00:27;20.90;62.20
60701;DHT22;46541;49.894;10.886;2023-05-19T11:03:14;20.90;61.80
60701;DHT22;46541;49.894;10.886;2023-05-19T11:05:41;20.80;62.50
60701;DHT22;46541;49.894;10.886;2023-05-19T11:08:11;20.70;61.20
60701;DHT22;46541;49.894;10.886;2023-05-19T11:10:38;20.80;61.50
60701;DHT22;46541;49.894;10.886;2023-05-19T11:13:18;20.70;61.00
60701;DHT22;46541;49.894;10.886;2023-05-19T11:15:45;20.80;60.60
60701;DHT22;46541;49.894;10.886;2023-05-19T11:18:13;20.80;61.10
60701;DHT22;46541;49.894;10.886;2023-05-19T11:20:41;20.90;61.10
60701;DHT22;46541;49.894;10.886;2023-05-19T11:23:14;21.00;60.60
60701;DHT22;46541;49.894;10.886;2023-05-19T11:25:49;21.20;60.20
60701;DHT22;46541;49.894;10.886;2023-05-19T11:28:18;21.20;60.20
60701;DHT22;46541;49.894;10.886;2023-05-19T11:30:47;21.10;60.00
60701;DHT22;46541;49.894;10.886;2023-05-19T11:33:19;21.10;60.40
60701;DHT22;46541;49.894;10.886;2023-05-19T11:35:47;21.00;60.60
60701;DHT22;46541;49.894;10.886;2023-05-19T11:38:17;21.00;60.60
60701;DHT22;46541;49.894;10.886;2023-05-19T11:40:45;21.20;59.60
60701;DHT22;46541;49.894;10.886;2023-05-19T11:43:13;21.40;60.10
60701;DHT22;46541;49.894;10.886;2023-05-19T11:45:39;21.30;59.60
60701;DHT22;46541;49.894;10.886;2023-05-19T11:48:10;21.50;59.40
60701;DHT22;46541;49.894;10.886;2023-05-19T11:50:40;21.30;59.00
60701;DHT22;46541;49.894;10.886;2023-05-19T11:53:07;21.20;59.20
60701;DHT22;46541;49.894;10.886;2023-05-19T11:55:41;21.30;58.80
60701;DHT22;46541;49.894;10.886;2023-05-19T11:58:10;21.50;58.30
60701;DHT22;46541;49.894;10.886;2023-05-19T12:00:39;21.50;57.90
60701;DHT22;46541;49.894;10.886;2023-05-19T12:03:07;21.60;58.30
60701;DHT22;46541;49.894;10.886;2023-05-19T12:05:37;21.50;59.50
60701;DHT22;46541;49.894;10.886;2023-05-19T12:08:09;21.60;59.50
60701;DHT22;46541;49.894;10.886;2023-05-19T12:10:37;21.60;58.80
60701;DHT22;46541;49.894;10.886;2023-05-19T12:13:05;21.40;57.00
60701;DHT22;46541;49.894;10.886;2023-05-19T12:15:34;21.30;57.60
60701;DHT22;46541;49.894;10.886;2023-05-19T12:18:02;21.40;58.10
60701;DHT22;46541;49.894;10.886;2023-05-19T12:20:30;21.60;58.80
60701;DHT22;46541;49.894;10.886;2023-05-19T12:23:03;21.60;59.10
60701;DHT22;46541;49.894;10.886;2023-05-19T12:25:30;21.50;58.60
60701;DHT22;46541;49.894;10.886;2023-05-19T12:27:59;21.50;58.40
60701;DHT22;46541;49.894;10.886;2023-05-19T12:30:29;21.60;58.00
60701;DHT22;46541;49.894;10.886;2023-05-19T12:32:57;21.90;57.70
60701;DHT22;46541;49.894;10.886;2023-05-19T12:35:30;21.80;57.60
60701;DHT22;46541;49.894;10.886;2023-05-19T12:38:05;22.20;59.10
60701;DHT22;46541;49.894;10.886;2023-05-19T12:40:35;22.70;57.30
60701;DHT22;46541;49.894;10.886;2023-05-19T12:43:04;22.90;55.90
60701;DHT22;46541;49.894;10.886;2023-05-19T12:45:35;22.80;57.30
60701;DHT22;46541;49.894;10.886;2023-05-19T12:48:04;22.80;56.10
60701;DHT22;46541;49.894;10.886;2023-05-19T12:50:32;22.90;56.70
60701;DHT22;46541;49.894;10.886;2023-05-19T12:53:00;22.50;57.30
60701;DHT22;46541;49.894;10.886;2023-05-19T12:55:27;22.40;57.70
60701;DHT22;46541;49.894;10.886;2023-05-19T12:57:54;22.40;57.70
60701;DHT22;46541;49.894;10.886;2023-05-19T13:00:24;22.30;56.90
60701;DHT22;46541;49.894;10.886;2023-05-19T13:03:01;22.20;57.30
60701;DHT22;46541;49.894;10.886;2023-05-19T13:05:36;22.10;57.10
60701;DHT22;46541;49.894;10.886;2023-05-19T13:08:11;22.10;57.20
60701;DHT22;46541;49.894;10.886;2023-05-19T13:10:40;21.80;57.60
60701;DHT22;46541;49.894;10.886;2023-05-19T13:13:07;21.80;57.60
60701;DHT22;46541;49.894;10.886;2023-05-19T13:15:38;21.80;57.40
60701;DHT22;46541;49.894;10.886;2023-05-19T13:18:07;21.90;57.30
60701;DHT22;46541;49.894;10.886;2023-05-19T13:20:40;22.10;57.70
60701;DHT22;46541;49.894;10.886;2023-05-19T13:23:09;22.60;56.50
60701;DHT22;46541;49.894;10.886;2023-05-19T13:25:36;22.90;56.00
60701;DHT22;46541;49.894;10.886;2023-05-19T13:28:03;23.00;57.20
60701;DHT22;46541;49.894;10.886;2023-05-19T13:30:32;22.70;55.90
60701;DHT22;46541;49.894;10.886;2023-05-19T13:33:00;22.50;56.30
60701;DHT22;46541;49.894;10.886;2023-05-19T13:35:27;22.40;57.50
60701;DHT22;46541;49.894;10.886;2023-05-19T13:37:54;22.60;57.20
60701;DHT22;46541;49.894;10.886;2023-05-19T13:40:21;22.50;57.80
60701;DHT22;46541;49.894;10.886;2023-05-19T13:42:49;22.50;57.10
60701;DHT22;46541;49.894;10.886;2023-05-19T13:45:16;22.60;56.80
60701;DHT22;46541;49.894;10.886;2023-05-19T13:47:43;22.50;57.10
60701;DHT22;46541;49.894;10.886;2023-05-19T13:50:10;22.80;57.20
60701;DHT22;46541;49.894;10.886;2023-05-19T13:52:38;22.80;56.80
60701;DHT22;46541;49.894;10.886;2023-05-19T13:55:05;22.60;57.80
60701;DHT22;46541;49.894;10.886;2023-05-19T13:57:32;22.40;57.80
60701;DHT22;46541;49.894;10.886;2023-05-19T13:59:59;22.40;57.60
60701;DHT22;46541;49.894;10.886;2023-05-19T14:02:29;22.50;58.00
60701;DHT22;46541;49.894;10.886;2023-05-19T14:04:56;22.30;58.00
60701;DHT22;46541;49.894;10.886;2023-05-19T14:07:23;22.50;58.40
60701;DHT22;46541;49.894;10.886;2023-05-19T14:09:51;22.20;57.70
60701;DHT22;46541;49.894;10.886;2023-05-19T14:12:18;22.00;58.30
60701;DHT22;46541;49.894;10.886;2023-05-19T14:14:48;21.90;58.40
60701;DHT22;46541;49.894;10.886;2023-05-19T14:17:15;21.90;58.40
60701;DHT22;46541;49.894;10.886;2023-05-19T14:19:42;22.30;58.60
60701;DHT22;46541;49.894;10.886;2023-05-19T14:22:09;22.80;58.80
60701;DHT22;46541;49.894;10.886;2023-05-19T14:24:35;23.00;57.30
60701;DHT22;46541;49.894;10.886;2023-05-19T14:27:02;23.30;58.00
60701;DHT22;46541;49.894;10.886;2023-05-19T14:29:29;23.30;57.00
60701;DHT22;46541;49.894;10.886;2023-05-19T14:31:59;23.10;57.00
60701;DHT22;46541;49.894;10.886;2023-05-19T14:34:26;22.80;57.60
60701;DHT22;46541;49.894;10.886;2023-05-19T14:36:53;22.50;57.80
60701;DHT22;46541;49.894;10.886;2023-05-19T14:39:19;22.70;57.90
60701;DHT22;46541;49.894;10.886;2023-05-19T14:41:46;22.70;57.70
60701;DHT22;46541;49.894;10.886;2023-05-19T14:44:16;22.80;57.60
60701;DHT22;46541;49.894;10.886;2023-05-19T14:46:43;22.90;57.90
60701;DHT22;46541;49.894;10.886;2023-05-19T14:49:09;22.80;57.80
60701;DHT22;46541;49.894;10.886;2023-05-19T14:51:37;22.60;58.20
60701;DHT22;46541;49.894;10.886;2023-05-19T14:54:05;22.20;59.10
60701;DHT22;46541;49.894;10.886;2023-05-19T14:56:31;22.00;60.00
60701;DHT22;46541;49.894;10.886;2023-05-19T14:58:58;21.70;60.20
60701;DHT22;46541;49.894;10.886;2023-05-19T15:01:25;21.50;60.80
60701;DHT22;46541;49.894;10.886;2023-05-19T15:03:52;21.50;60.80
60701;DHT22;46541;49.894;10.886;2023-05-19T15:06:19;21.20;61.20
60701;DHT22;46541;49.894;10.886;2023-05-19T15:08:45;21.20;62.20
60701;DHT22;46541;49.894;10.886;2023-05-19T15:11:12;21.00;61.90
60701;DHT22;46541;49.894;10.886;2023-05-19T15:13:39;21.00;62.40
60701;DHT22;46541;49.894;10.886;2023-05-19T15:16:06;21.00;62.10
60701;DHT22;46541;49.894;10.886;2023-05-19T15:18:43;20.90;62.10
60701;DHT22;46541;49.894;10.886;2023-05-19T15:21:10;20.80;62.50
60701;DHT22;46541;49.894;10.886;2023-05-19T15:23:37;20.70;63.00
60701;DHT22;46541;49.894;10.886;2023-05-19T15:26:04;20.50;63.40
60701;DHT22;46541;49.894;10.886;2023-05-19T15:28:31;20.40;63.80
60701;DHT22;46541;49.894;10.886;2023-05-19T15:30:58;20.50;64.00
60701;DHT22;46541;49.894;10.886;2023-05-19T15:33:25;20.60;64.20
60701;DHT22;46541;49.894;10.886;2023-05-19T15:35:52;20.40;64.30
60701;DHT22;46541;49.894;10.886;2023-05-19T15:38:19;20.40;65.10
60701;DHT22;46541;49.894;10.886;2023-05-19T15:40:46;20.30;65.60